createdAt,value
2018-08-23T00:00:47.016Z,6.87
2018-08-23T00:05:52.072Z,1.87
2018-08-23T00:10:55.273Z,3.17
2018-08-23T00:15:58.399Z,2.60
2018-08-23T00:21:01.495Z,4.33
2018-08-23T00:26:04.587Z,1.57
2018-08-23T00:31:07.699Z,4.23
2018-08-23T00:36:10.790Z,3.00
2018-08-23T00:41:13.876Z,6.67
2018-08-23T00:46:16.996Z,3.67
2018-08-23T00:51:20.110Z,2.50
2018-08-23T00:56:26.382Z,2.17
2018-08-23T01:01:29.766Z,8.23
2018-08-23T01:06:41.769Z,2.37
2018-08-23T01:11:45.854Z,3.23
2018-08-23T01:17:02.931Z,2.47
2018-08-23T01:22:06.927Z,3.17
2018-08-23T01:27:19.182Z,2.53
2018-08-23T01:32:33.940Z,3.27
2018-08-23T01:37:39.096Z,7.00
2018-08-23T01:42:42.402Z,2.00
2018-08-23T01:47:50.944Z,2.80
2018-08-23T01:52:55.174Z,1.90
2018-08-23T01:57:58.296Z,3.60
2018-08-23T02:03:02.198Z,4.47
2018-08-23T02:08:05.298Z,2.57
2018-08-23T02:13:15.546Z,3.67
2018-08-23T02:18:18.743Z,2.50
2018-08-23T02:23:21.838Z,2.50
2018-08-23T02:28:24.944Z,2.93
2018-08-23T02:33:28.018Z,2.00
2018-08-23T02:38:31.098Z,7.10
2018-08-23T02:43:34.191Z,3.30
2018-08-23T02:48:37.388Z,2.40
2018-08-23T02:53:43.627Z,2.43
2018-08-23T02:58:50.001Z,2.07
2018-08-23T03:04:06.820Z,2.70
2018-08-23T03:09:09.927Z,2.47
2018-08-23T03:14:13.111Z,5.77
2018-08-23T03:19:16.467Z,2.83
2018-08-23T03:24:20.487Z,3.00
2018-08-23T03:29:23.607Z,3.20
2018-08-23T03:34:26.714Z,2.60
2018-08-23T03:39:29.839Z,2.87
2018-08-23T03:44:38.335Z,3.87
2018-08-23T03:49:46.266Z,2.10
2018-08-23T03:54:55.175Z,3.33
2018-08-23T03:59:58.255Z,3.40
2018-08-23T04:05:11.195Z,4.27
2018-08-23T04:10:14.307Z,2.47
2018-08-23T04:15:27.579Z,7.20
2018-08-23T04:20:30.659Z,8.13
2018-08-23T04:25:33.771Z,7.10
2018-08-23T04:30:36.899Z,11.33
2018-08-23T04:35:39.975Z,3.93
2018-08-23T04:40:56.419Z,7.30
2018-08-23T04:46:00.511Z,4.67
2018-08-23T04:51:03.635Z,4.53
2018-08-23T04:56:06.830Z,3.70
2018-08-23T05:01:10.522Z,5.70
2018-08-23T05:06:13.611Z,6.07
2018-08-23T05:11:16.694Z,5.70
2018-08-23T05:16:19.816Z,6.57
2018-08-23T05:21:22.923Z,7.50
2018-08-23T05:26:26.012Z,8.67
2018-08-23T05:31:31.003Z,4.53
2018-08-23T05:36:34.106Z,9.20
2018-08-23T05:41:37.355Z,12.70
2018-08-23T05:46:48.954Z,9.50
2018-08-23T05:51:55.248Z,9.70
2018-08-23T05:56:58.351Z,8.53
2018-08-23T06:02:01.479Z,18.13
2018-08-23T06:07:04.578Z,27.40
2018-08-23T06:12:07.838Z,27.13
2018-08-23T06:17:17.204Z,33.27
2018-08-23T06:22:20.314Z,43.57
2018-08-23T06:27:23.430Z,37.80
2018-08-23T06:32:26.483Z,53.40
2018-08-23T06:37:29.586Z,41.67
2018-08-23T06:42:44.641Z,46.30
2018-08-23T06:47:52.009Z,45.83
2018-08-23T06:52:55.191Z,47.33
2018-08-23T06:57:59.190Z,48.23
2018-08-23T07:03:04.519Z,31.87
2018-08-23T07:08:07.732Z,50.37
2018-08-23T07:13:10.848Z,38.30
2018-08-23T07:18:18.736Z,44.77
2018-08-23T07:23:29.978Z,42.37
2018-08-23T07:28:33.394Z,35.13
2018-08-23T07:33:36.767Z,43.53
2018-08-23T07:38:39.855Z,37.00
2018-08-23T07:43:42.963Z,41.13
2018-08-23T07:48:46.067Z,40.20
2018-08-23T07:53:49.187Z,48.93
2018-08-23T07:58:54.440Z,51.97
2018-08-23T08:03:58.381Z,43.23
2018-08-23T08:09:01.488Z,47.23
2018-08-23T08:14:14.804Z,41.50
2018-08-23T08:19:17.940Z,49.97
2018-08-23T08:24:21.053Z,43.03
2018-08-23T08:29:29.735Z,45.50
2018-08-23T08:34:32.851Z,50.23
2018-08-23T08:39:35.983Z,57.73
2018-08-23T08:44:39.376Z,54.23
2018-08-23T08:49:42.475Z,28.70
2018-08-23T08:54:45.583Z,60.03
2018-08-23T08:59:48.700Z,59.53
2018-08-23T09:04:51.803Z,71.00
2018-08-23T09:09:54.981Z,71.03
2018-08-23T09:14:58.295Z,68.07
2018-08-23T09:20:03.817Z,74.13
2018-08-23T09:25:08.494Z,41.87
2018-08-23T09:30:17.134Z,66.50
2018-08-23T09:35:21.488Z,69.93
2018-08-23T09:40:25.032Z,50.80
2018-08-23T09:45:28.150Z,40.10
2018-08-23T09:50:31.259Z,39.53
2018-08-23T09:55:34.346Z,47.10
2018-08-23T10:00:43.129Z,30.63
2018-08-23T10:05:51.639Z,28.00
2018-08-23T10:11:00.175Z,22.87
2018-08-23T10:16:08.856Z,20.20
2018-08-23T10:21:12.266Z,16.60
2018-08-23T10:26:29.801Z,22.13
2018-08-23T10:31:32.874Z,44.50
2018-08-23T10:36:35.967Z,46.70
2018-08-23T10:41:39.186Z,24.30
2018-08-23T10:46:47.612Z,30.07
2018-08-23T10:51:50.724Z,23.53
2018-08-23T10:56:53.827Z,33.80
2018-08-23T11:01:56.910Z,25.50
2018-08-23T11:07:00.011Z,23.30
2018-08-23T11:12:03.131Z,26.70
2018-08-23T11:17:11.669Z,19.00
2018-08-23T11:22:14.684Z,21.50
2018-08-23T11:27:17.795Z,20.13
2018-08-23T11:32:20.880Z,28.40
2018-08-23T11:37:23.968Z,19.80
2018-08-23T11:42:27.102Z,22.50
2018-08-23T11:47:30.227Z,19.97
2018-08-23T11:52:33.323Z,15.13
2018-08-23T11:57:36.475Z,19.00
2018-08-23T12:02:42.640Z,16.50
2018-08-23T12:07:46.911Z,20.53
2018-08-23T12:12:53.141Z,11.30
2018-08-23T12:17:56.713Z,16.73
2018-08-23T12:22:59.827Z,12.53
2018-08-23T12:28:07.175Z,14.17
2018-08-23T12:33:10.279Z,14.27
2018-08-23T12:38:20.496Z,14.90
2018-08-23T12:43:28.995Z,11.07
2018-08-23T12:48:32.079Z,13.27
2018-08-23T12:53:35.180Z,17.90
2018-08-23T12:58:38.319Z,16.50
2018-08-23T13:03:41.423Z,16.53
2018-08-23T13:08:44.545Z,13.37
2018-08-23T13:13:47.651Z,14.97
2018-08-23T13:18:50.912Z,15.33
2018-08-23T13:23:54.018Z,14.67
2018-08-23T13:28:57.106Z,16.33
2018-08-23T13:34:00.311Z,19.83
2018-08-23T13:39:03.725Z,15.60
2018-08-23T13:44:06.852Z,19.57
2018-08-23T13:49:09.946Z,19.30
2018-08-23T13:54:13.095Z,16.23
2018-08-23T13:59:16.216Z,16.30
2018-08-23T14:04:19.336Z,19.53
2018-08-23T14:09:22.431Z,12.90
2018-08-23T14:14:25.619Z,18.87
2018-08-23T14:19:28.827Z,13.47
2018-08-23T14:24:31.899Z,22.97
2018-08-23T14:29:35.003Z,17.93
2018-08-23T14:34:39.239Z,15.47
2018-08-23T14:39:42.338Z,20.40
2018-08-23T14:44:45.456Z,20.03
2018-08-23T14:49:48.542Z,10.20
2018-08-23T14:54:52.695Z,14.03
2018-08-23T14:59:55.799Z,9.73
2018-08-23T15:04:58.926Z,11.70
2018-08-23T15:10:02.015Z,13.70
2018-08-23T15:15:07.848Z,10.93
2018-08-23T15:20:10.896Z,9.53
2018-08-23T15:25:14.007Z,10.30
2018-08-23T15:30:17.119Z,8.47
2018-08-23T15:35:20.223Z,9.07
2018-08-23T15:40:23.340Z,6.63
2018-08-23T15:45:26.458Z,8.10
2018-08-23T15:50:29.566Z,8.10
2018-08-23T15:55:34.044Z,6.50
2018-08-23T16:00:37.905Z,6.13
2018-08-23T16:05:40.991Z,5.90
2018-08-23T16:10:44.104Z,7.00
2018-08-23T16:15:47.242Z,8.73
2018-08-23T16:20:55.515Z,7.30
2018-08-23T16:25:58.613Z,7.67
2018-08-23T16:31:01.735Z,6.53
2018-08-23T16:36:04.827Z,5.10
2018-08-23T16:41:07.943Z,5.87
2018-08-23T16:46:11.031Z,4.60
2018-08-23T16:51:14.315Z,6.00
2018-08-23T16:56:17.415Z,6.37
2018-08-23T17:01:20.506Z,4.70
2018-08-23T17:06:24.877Z,5.07
2018-08-23T17:11:27.986Z,6.73
2018-08-23T17:16:36.406Z,6.10
2018-08-23T17:21:39.519Z,4.40
2018-08-23T17:26:42.642Z,5.90
2018-08-23T17:31:45.779Z,7.97
2018-08-23T17:36:48.886Z,5.43
2018-08-23T17:41:51.988Z,8.67
2018-08-23T17:46:55.097Z,7.53
2018-08-23T17:51:58.223Z,6.57
2018-08-23T17:57:01.331Z,9.90
2018-08-23T18:02:04.443Z,9.37
2018-08-23T18:07:07.555Z,9.40
2018-08-23T18:12:10.664Z,10.00
2018-08-23T18:17:13.755Z,10.23
2018-08-23T18:22:16.828Z,10.20
2018-08-23T18:27:19.927Z,10.13
2018-08-23T18:32:23.090Z,11.70
2018-08-23T18:37:26.145Z,12.17
2018-08-23T18:42:29.226Z,10.57
2018-08-23T18:47:32.326Z,16.00
2018-08-23T18:52:35.432Z,17.57
2018-08-23T18:57:38.555Z,18.17
2018-08-23T19:02:41.677Z,17.63
2018-08-23T19:07:44.788Z,19.00
2018-08-23T19:12:47.924Z,21.73
2018-08-23T19:17:50.991Z,18.80
2018-08-23T19:22:54.090Z,19.27
2018-08-23T19:27:57.207Z,19.67
2018-08-23T19:33:01.442Z,22.50
2018-08-23T19:38:04.512Z,21.80
2018-08-23T19:43:07.664Z,23.10
2018-08-23T19:48:11.003Z,20.27
2018-08-23T19:53:14.067Z,27.53
2018-08-23T19:58:17.206Z,27.17
2018-08-23T20:03:20.323Z,24.77
2018-08-23T20:08:23.948Z,20.80
2018-08-23T20:13:27.052Z,22.13
2018-08-23T20:18:30.178Z,23.90
2018-08-23T20:23:33.307Z,24.90
2018-08-23T20:28:36.427Z,26.50
2018-08-23T20:33:39.531Z,25.20
2018-08-23T20:38:42.633Z,22.83
2018-08-23T20:43:45.718Z,19.53
2018-08-23T20:48:48.836Z,13.10
2018-08-23T20:53:52.604Z,20.80
2018-08-23T20:58:55.691Z,12.97
2018-08-23T21:03:59.706Z,23.27
2018-08-23T21:09:02.992Z,24.23
2018-08-23T21:14:06.218Z,22.10
2018-08-23T21:19:09.551Z,20.77
2018-08-23T21:24:12.674Z,17.70
2018-08-23T21:29:15.757Z,17.63
2018-08-23T21:34:18.879Z,19.30
2018-08-23T21:39:21.979Z,20.67
2018-08-23T21:44:25.113Z,16.83
2018-08-23T21:49:28.234Z,23.23
2018-08-23T21:54:32.306Z,18.50
2018-08-23T21:59:35.427Z,12.17
2018-08-23T22:04:44.034Z,17.00
2018-08-23T22:09:50.321Z,17.67
2018-08-23T22:14:54.331Z,16.50
2018-08-23T22:19:57.487Z,17.33
2018-08-23T22:25:00.646Z,23.47
2018-08-23T22:30:03.803Z,18.90
2018-08-23T22:35:07.241Z,18.27
2018-08-23T22:45:20.099Z,18.57
2018-08-23T22:50:23.248Z,17.63
2018-08-23T22:55:27.885Z,18.87
2018-08-23T23:00:36.547Z,18.97
2018-08-23T23:05:39.737Z,19.90
2018-08-23T23:10:42.933Z,19.00
2018-08-23T23:15:46.106Z,21.40
2018-08-23T23:20:49.244Z,15.97
2018-08-23T23:25:52.405Z,25.27
2018-08-23T23:30:55.542Z,18.30
2018-08-23T23:35:58.686Z,21.50
2018-08-23T23:41:01.845Z,20.83
2018-08-23T23:46:05.175Z,14.07
2018-08-23T23:51:08.503Z,22.00
2018-08-23T23:56:11.697Z,19.70
